sensor_id;sensor_type;location;lat;lon;timestamp;temperature;humidity
49224;DHT22;35050;51.316;5.994;2023-03-14T00:02:26;12.30;99.90
49224;DHT22;35050;51.316;5.994;2023-03-14T00:04:54;12.30;99.90
49224;DHT22;35050;51.316;5.994;2023-03-14T00:07:21;12.20;99.90
49224;DHT22;35050;51.316;5.994;2023-03-14T00:09:50;12.20;99.90
49224;DHT22;35050;51.316;5.994;2023-03-14T00:12:15;12.20;99.90
49224;DHT22;35050;51.316;5.994;2023-03-14T00:14:41;12.20;99.90
49224;DHT22;35050;51.316;5.994;2023-03-14T00:17:08;12.20;99.90
49224;DHT22;35050;51.316;5.994;2023-03-14T00:19:33;12.20;99.90
49224;DHT22;35050;51.316;5.994;2023-03-14T00:21:59;12.10;99.90
49224;DHT22;35050;51.316;5.994;2023-03-14T00:24:25;12.00;99.90
49224;DHT22;35050;51.316;5.994;2023-03-14T00:26:50;12.00;99.90
49224;DHT22;35050;51.316;5.994;2023-03-14T00:29:16;12.00;99.90
49224;DHT22;35050;51.316;5.994;2023-03-14T00:31:41;11.90;99.90
49224;DHT22;35050;51.316;5.994;2023-03-14T00:34:07;11.90;99.90
49224;DHT22;35050;51.316;5.994;2023-03-14T00:36:33;11.80;99.90
49224;DHT22;35050;51.316;5.994;2023-03-14T00:38:58;11.80;99.90
49224;DHT22;35050;51.316;5.994;2023-03-14T00:41:24;11.80;99.90
49224;DHT22;35050;51.316;5.994;2023-03-14T00:43:50;11.70;99.90
49224;DHT22;35050;51.316;5.994;2023-03-14T00:46:16;11.70;99.90
49224;DHT22;35050;51.316;5.994;2023-03-14T00:48:42;11.60;99.90
49224;DHT22;35050;51.316;5.994;2023-03-14T00:51:09;11.60;99.90
49224;DHT22;35050;51.316;5.994;2023-03-14T00:53:37;11.60;99.90
49224;DHT22;35050;51.316;5.994;2023-03-14T00:56:06;11.60;99.90
49224;DHT22;35050;51.316;5.994;2023-03-14T00:58:32;11.50;99.90
49224;DHT22;35050;51.316;5.994;2023-03-14T01:00:58;11.50;99.90
49224;DHT22;35050;51.316;5.994;2023-03-14T01:03:24;11.40;99.90
49224;DHT22;35050;51.316;5.994;2023-03-14T01:05:49;11.50;99.90
49224;DHT22;35050;51.316;5.994;2023-03-14T01:08:16;11.50;99.90
49224;DHT22;35050;51.316;5.994;2023-03-14T01:10:42;11.50;99.90
49224;DHT22;35050;51.316;5.994;2023-03-14T01:13:08;11.40;99.90
49224;DHT22;35050;51.316;5.994;2023-03-14T01:15:34;11.40;99.90
49224;DHT22;35050;51.316;5.994;2023-03-14T01:18:00;11.30;99.90
49224;DHT22;35050;51.316;5.994;2023-03-14T01:20:26;11.20;99.90
49224;DHT22;35050;51.316;5.994;2023-03-14T01:22:52;11.30;99.90
49224;DHT22;35050;51.316;5.994;2023-03-14T01:25:17;11.20;99.90
49224;DHT22;35050;51.316;5.994;2023-03-14T01:27:43;11.20;99.90
49224;DHT22;35050;51.316;5.994;2023-03-14T01:30:10;11.10;99.90
49224;DHT22;35050;51.316;5.994;2023-03-14T01:32:37;11.10;99.90
49224;DHT22;35050;51.316;5.994;2023-03-14T01:35:03;11.10;99.90
49224;DHT22;35050;51.316;5.994;2023-03-14T01:37:29;11.00;99.90
49224;DHT22;35050;51.316;5.994;2023-03-14T01:39:54;11.10;99.90
49224;DHT22;35050;51.316;5.994;2023-03-14T01:42:20;11.00;99.90
49224;DHT22;35050;51.316;5.994;2023-03-14T01:44:57;11.10;99.90
49224;DHT22;35050;51.316;5.994;2023-03-14T01:47:23;11.10;99.90
49224;DHT22;35050;51.316;5.994;2023-03-14T01:50:06;11.00;99.90
49224;DHT22;35050;51.316;5.994;2023-03-14T01:52:41;11.00;99.90
49224;DHT22;35050;51.316;5.994;2023-03-14T01:55:17;11.10;99.90
49224;DHT22;35050;51.316;5.994;2023-03-14T01:57:52;11.00;99.90
49224;DHT22;35050;51.316;5.994;2023-03-14T02:00:21;11.00;99.90
49224;DHT22;35050;51.316;5.994;2023-03-14T02:02:49;11.00;99.90
49224;DHT22;35050;51.316;5.994;2023-03-14T02:05:21;10.90;99.90
49224;DHT22;35050;51.316;5.994;2023-03-14T02:07:59;10.90;99.90
49224;DHT22;35050;51.316;5.994;2023-03-14T02:10:31;10.90;99.90
49224;DHT22;35050;51.316;5.994;2023-03-14T02:13:00;10.90;99.90
49224;DHT22;35050;51.316;5.994;2023-03-14T02:15:27;10.80;99.90
49224;DHT22;35050;51.316;5.994;2023-03-14T02:17:53;10.80;99.90
49224;DHT22;35050;51.316;5.994;2023-03-14T02:22:51;10.80;99.90
49224;DHT22;35050;51.316;5.994;2023-03-14T02:27:47;10.80;99.90
49224;DHT22;35050;51.316;5.994;2023-03-14T02:30:22;10.80;99.90
49224;DHT22;35050;51.316;5.994;2023-03-14T02:32:56;10.80;99.90
49224;DHT22;35050;51.316;5.994;2023-03-14T02:35:27;10.80;99.90
49224;DHT22;35050;51.316;5.994;2023-03-14T02:38:07;10.80;99.90
49224;DHT22;35050;51.316;5.994;2023-03-14T02:40:35;10.80;99.90
49224;DHT22;35050;51.316;5.994;2023-03-14T02:43:01;10.80;99.90
49224;DHT22;35050;51.316;5.994;2023-03-14T02:45:51;10.80;99.90
49224;DHT22;35050;51.316;5.994;2023-03-14T02:50:51;10.90;99.90
49224;DHT22;35050;51.316;5.994;2023-03-14T02:53:24;10.90;99.90
49224;DHT22;35050;51.316;5.994;2023-03-14T02:55:50;11.00;99.90
49224;DHT22;35050;51.316;5.994;2023-03-14T02:58:16;11.00;99.90
49224;DHT22;35050;51.316;5.994;2023-03-14T03:00:42;11.00;99.90
49224;DHT22;35050;51.316;5.994;2023-03-14T03:03:08;11.00;99.90
49224;DHT22;35050;51.316;5.994;2023-03-14T03:05:34;11.00;99.90
49224;DHT22;35050;51.316;5.994;2023-03-14T03:08:00;11.00;99.90
49224;DHT22;35050;51.316;5.994;2023-03-14T03:10:27;11.00;99.90
49224;DHT22;35050;51.316;5.994;2023-03-14T03:12:53;11.10;99.90
49224;DHT22;35050;51.316;5.994;2023-03-14T03:15:18;11.00;99.90
49224;DHT22;35050;51.316;5.994;2023-03-14T03:17:44;11.10;99.90
49224;DHT22;35050;51.316;5.994;2023-03-14T03:20:10;11.10;99.90
49224;DHT22;35050;51.316;5.994;2023-03-14T03:22:37;11.10;99.90
49224;DHT22;35050;51.316;5.994;2023-03-14T03:25:04;11.10;99.90
49224;DHT22;35050;51.316;5.994;2023-03-14T03:27:32;11.10;99.90
49224;DHT22;35050;51.316;5.994;2023-03-14T03:29:58;11.10;99.90
49224;DHT22;35050;51.316;5.994;2023-03-14T03:32:23;11.00;99.90
49224;DHT22;35050;51.316;5.994;2023-03-14T03:34:49;11.00;99.90
49224;DHT22;35050;51.316;5.994;2023-03-14T03:37:15;11.00;99.90
49224;DHT22;35050;51.316;5.994;2023-03-14T03:39:41;11.00;99.90
49224;DHT22;35050;51.316;5.994;2023-03-14T03:42:06;11.00;99.90
49224;DHT22;35050;51.316;5.994;2023-03-14T03:44:32;11.00;99.90
49224;DHT22;35050;51.316;5.994;2023-03-14T03:46:58;11.00;99.90
49224;DHT22;35050;51.316;5.994;2023-03-14T03:49:23;11.00;99.90
49224;DHT22;35050;51.316;5.994;2023-03-14T03:51:49;10.90;99.90
49224;DHT22;35050;51.316;5.994;2023-03-14T03:54:15;11.00;99.90
49224;DHT22;35050;51.316;5.994;2023-03-14T03:56:40;10.90;99.90
49224;DHT22;35050;51.316;5.994;2023-03-14T03:59:06;10.90;99.90
49224;DHT22;35050;51.316;5.994;2023-03-14T04:01:31;10.80;99.90
49224;DHT22;35050;51.316;5.994;2023-03-14T04:03:57;10.70;99.90
49224;DHT22;35050;51.316;5.994;2023-03-14T04:06:23;10.50;99.90
49224;DHT22;35050;51.316;5.994;2023-03-14T04:08:48;10.30;99.90
49224;DHT22;35050;51.316;5.994;2023-03-14T04:11:14;10.20;99.90
49224;DHT22;35050;51.316;5.994;2023-03-14T04:13:39;10.20;99.90
49224;DHT22;35050;51.316;5.994;2023-03-14T04:16:17;10.20;99.90
49224;DHT22;35050;51.316;5.994;2023-03-14T04:18:43;10.20;99.90
49224;DHT22;35050;51.316;5.994;2023-03-14T04:21:09;10.20;99.90
49224;DHT22;35050;51.316;5.994;2023-03-14T04:23:34;10.10;99.90
49224;DHT22;35050;51.316;5.994;2023-03-14T04:26:00;10.20;99.90
49224;DHT22;35050;51.316;5.994;2023-03-14T04:28:26;10.10;99.90
49224;DHT22;35050;51.316;5.994;2023-03-14T04:30:52;10.20;99.90
49224;DHT22;35050;51.316;5.994;2023-03-14T04:33:17;10.10;99.90
49224;DHT22;35050;51.316;5.994;2023-03-14T04:35:44;10.10;99.90
49224;DHT22;35050;51.316;5.994;2023-03-14T04:38:10;10.10;99.90
49224;DHT22;35050;51.316;5.994;2023-03-14T04:40:37;10.10;99.90
49224;DHT22;35050;51.316;5.994;2023-03-14T04:43:03;10.00;99.90
49224;DHT22;35050;51.316;5.994;2023-03-14T04:45:29;9.90;99.90
49224;DHT22;35050;51.316;5.994;2023-03-14T04:47:54;9.90;99.90
49224;DHT22;35050;51.316;5.994;2023-03-14T04:50:20;9.90;99.90
49224;DHT22;35050;51.316;5.994;2023-03-14T04:52:46;9.90;99.90
49224;DHT22;35050;51.316;5.994;2023-03-14T04:55:11;10.00;99.90
49224;DHT22;35050;51.316;5.994;2023-03-14T04:57:37;9.90;99.90
49224;DHT22;35050;51.316;5.994;2023-03-14T05:00:04;9.90;99.90
49224;DHT22;35050;51.316;5.994;2023-03-14T05:02:33;9.80;99.90
49224;DHT22;35050;51.316;5.994;2023-03-14T05:04:59;9.90;99.90
49224;DHT22;35050;51.316;5.994;2023-03-14T05:07:24;9.90;99.90
49224;DHT22;35050;51.316;5.994;2023-03-14T05:09:50;10.00;99.90
49224;DHT22;35050;51.316;5.994;2023-03-14T05:12:16;9.90;99.90
49224;DHT22;35050;51.316;5.994;2023-03-14T05:14:41;9.90;99.90
49224;DHT22;35050;51.316;5.994;2023-03-14T05:17:07;9.90;99.90
49224;DHT22;35050;51.316;5.994;2023-03-14T05:19:33;9.80;99.90
49224;DHT22;35050;51.316;5.994;2023-03-14T05:21:58;9.80;99.90
49224;DHT22;35050;51.316;5.994;2023-03-14T05:24:24;9.80;99.90
49224;DHT22;35050;51.316;5.994;2023-03-14T05:26:50;9.90;99.90
49224;DHT22;35050;51.316;5.994;2023-03-14T05:29:15;9.90;99.90
49224;DHT22;35050;51.316;5.994;2023-03-14T05:31:41;9.90;99.90
49224;DHT22;35050;51.316;5.994;2023-03-14T05:34:06;9.90;99.90
49224;DHT22;35050;51.316;5.994;2023-03-14T05:36:32;9.90;99.90
49224;DHT22;35050;51.316;5.994;2023-03-14T05:38:58;10.00;99.90
49224;DHT22;35050;51.316;5.994;2023-03-14T05:41:23;9.90;99.90
49224;DHT22;35050;51.316;5.994;2023-03-14T05:43:49;10.00;99.90
49224;DHT22;35050;51.316;5.994;2023-03-14T05:46:15;10.10;99.90
49224;DHT22;35050;51.316;5.994;2023-03-14T05:48:40;10.00;99.90
49224;DHT22;35050;51.316;5.994;2023-03-14T05:51:06;10.10;99.90
49224;DHT22;35050;51.316;5.994;2023-03-14T05:53:32;10.10;99.90
49224;DHT22;35050;51.316;5.994;2023-03-14T05:55:57;10.20;99.90
49224;DHT22;35050;51.316;5.994;2023-03-14T05:58:23;10.20;99.90
49224;DHT22;35050;51.316;5.994;2023-03-14T06:00:50;10.20;99.90
49224;DHT22;35050;51.316;5.994;2023-03-14T06:03:15;10.20;99.90
49224;DHT22;35050;51.316;5.994;2023-03-14T06:05:41;10.20;99.90
49224;DHT22;35050;51.316;5.994;2023-03-14T06:08:07;10.20;99.90
49224;DHT22;35050;51.316;5.994;2023-03-14T06:10:34;10.20;99.90
49224;DHT22;35050;51.316;5.994;2023-03-14T06:13:00;10.20;99.90
49224;DHT22;35050;51.316;5.994;2023-03-14T06:15:25;10.20;99.90
49224;DHT22;35050;51.316;5.994;2023-03-14T06:17:51;10.20;99.90
49224;DHT22;35050;51.316;5.994;2023-03-14T06:20:18;10.20;99.90
49224;DHT22;35050;51.316;5.994;2023-03-14T06:22:44;10.20;99.90
49224;DHT22;35050;51.316;5.994;2023-03-14T06:25:10;10.20;99.90
49224;DHT22;35050;51.316;5.994;2023-03-14T06:27:35;10.10;99.90
49224;DHT22;35050;51.316;5.994;2023-03-14T06:30:01;10.20;99.90
49224;DHT22;35050;51.316;5.994;2023-03-14T06:32:27;10.10;99.90
49224;DHT22;35050;51.316;5.994;2023-03-14T06:34:52;10.30;99.90
49224;DHT22;35050;51.316;5.994;2023-03-14T06:37:18;10.20;99.90
49224;DHT22;35050;51.316;5.994;2023-03-14T06:39:44;10.20;99.90
49224;DHT22;35050;51.316;5.994;2023-03-14T06:42:09;10.20;99.90
49224;DHT22;35050;51.316;5.994;2023-03-14T06:44:35;10.20;99.90
49224;DHT22;35050;51.316;5.994;2023-03-14T06:47:01;10.30;99.90
49224;DHT22;35050;51.316;5.994;2023-03-14T06:49:26;10.30;99.90
49224;DHT22;35050;51.316;5.994;2023-03-14T06:51:52;10.30;99.90
49224;DHT22;35050;51.316;5.994;2023-03-14T06:54:18;10.40;99.90
49224;DHT22;35050;51.316;5.994;2023-03-14T06:56:43;10.30;99.90
49224;DHT22;35050;51.316;5.994;2023-03-14T06:59:09;10.40;99.90
49224;DHT22;35050;51.316;5.994;2023-03-14T07:01:34;10.40;99.90
49224;DHT22;35050;51.316;5.994;2023-03-14T07:04:01;10.30;99.90
49224;DHT22;35050;51.316;5.994;2023-03-14T07:06:26;10.40;99.90
49224;DHT22;35050;51.316;5.994;2023-03-14T07:08:54;10.40;99.90
49224;DHT22;35050;51.316;5.994;2023-03-14T07:11:20;10.50;99.90
49224;DHT22;35050;51.316;5.994;2023-03-14T07:13:46;10.50;99.90
49224;DHT22;35050;51.316;5.994;2023-03-14T07:16:12;10.60;99.90
49224;DHT22;35050;51.316;5.994;2023-03-14T07:18:37;10.60;99.90
49224;DHT22;35050;51.316;5.994;2023-03-14T07:21:04;10.60;99.90
49224;DHT22;35050;51.316;5.994;2023-03-14T07:23:30;10.70;99.90
49224;DHT22;35050;51.316;5.994;2023-03-14T07:25:56;10.70;99.90
49224;DHT22;35050;51.316;5.994;2023-03-14T07:28:22;10.60;99.90
49224;DHT22;35050;51.316;5.994;2023-03-14T07:30:48;10.70;99.90
49224;DHT22;35050;51.316;5.994;2023-03-14T07:33:14;10.80;99.90
49224;DHT22;35050;51.316;5.994;2023-03-14T07:35:40;10.80;99.90
49224;DHT22;35050;51.316;5.994;2023-03-14T07:38:06;10.90;99.90
49224;DHT22;35050;51.316;5.994;2023-03-14T07:40:31;10.80;99.90
49224;DHT22;35050;51.316;5.994;2023-03-14T07:42:57;10.80;99.90
49224;DHT22;35050;51.316;5.994;2023-03-14T07:45:23;10.80;99.90
49224;DHT22;35050;51.316;5.994;2023-03-14T07:47:48;11.00;99.90
49224;DHT22;35050;51.316;5.994;2023-03-14T07:50:14;11.00;99.90
49224;DHT22;35050;51.316;5.994;2023-03-14T07:52:40;11.10;99.90
49224;DHT22;35050;51.316;5.994;2023-03-14T07:55:05;11.10;99.90
49224;DHT22;35050;51.316;5.994;2023-03-14T07:57:31;11.10;99.90
49224;DHT22;35050;51.316;5.994;2023-03-14T07:59:57;11.10;99.90
49224;DHT22;35050;51.316;5.994;2023-03-14T08:02:23;11.00;99.90
49224;DHT22;35050;51.316;5.994;2023-03-14T08:04:49;11.00;99.90
49224;DHT22;35050;51.316;5.994;2023-03-14T08:07:15;11.00;99.90
49224;DHT22;35050;51.316;5.994;2023-03-14T08:09:40;11.10;99.90
49224;DHT22;35050;51.316;5.994;2023-03-14T08:12:06;11.00;99.90
49224;DHT22;35050;51.316;5.994;2023-03-14T08:14:32;10.90;99.90
49224;DHT22;35050;51.316;5.994;2023-03-14T08:16:58;11.00;99.90
49224;DHT22;35050;51.316;5.994;2023-03-14T08:19:23;10.90;99.90
49224;DHT22;35050;51.316;5.994;2023-03-14T08:21:50;10.90;99.90
49224;DHT22;35050;51.316;5.994;2023-03-14T08:24:15;10.80;99.90
49224;DHT22;35050;51.316;5.994;2023-03-14T08:26:41;10.50;99.90
49224;DHT22;35050;51.316;5.994;2023-03-14T08:29:07;10.20;99.90
49224;DHT22;35050;51.316;5.994;2023-03-14T08:31:34;10.00;99.90
49224;DHT22;35050;51.316;5.994;2023-03-14T08:34:00;9.70;99.90
49224;DHT22;35050;51.316;5.994;2023-03-14T08:36:27;9.60;99.90
49224;DHT22;35050;51.316;5.994;2023-03-14T08:38:53;9.50;99.90
49224;DHT22;35050;51.316;5.994;2023-03-14T08:41:19;9.40;99.90
49224;DHT22;35050;51.316;5.994;2023-03-14T08:43:45;9.40;99.90
49224;DHT22;35050;51.316;5.994;2023-03-14T08:46:10;9.40;99.90
49224;DHT22;35050;51.316;5.994;2023-03-14T08:48:36;9.40;99.90
49224;DHT22;35050;51.316;5.994;2023-03-14T08:51:20;9.40;99.90
49224;DHT22;35050;51.316;5.994;2023-03-14T08:53:45;9.40;99.90
49224;DHT22;35050;51.316;5.994;2023-03-14T08:56:11;9.30;99.90
49224;DHT22;35050;51.316;5.994;2023-03-14T08:58:37;9.30;99.90
49224;DHT22;35050;51.316;5.994;2023-03-14T09:01:05;9.20;99.90
49224;DHT22;35050;51.316;5.994;2023-03-14T09:03:30;9.20;99.90
49224;DHT22;35050;51.316;5.994;2023-03-14T09:06:00;9.20;99.90
49224;DHT22;35050;51.316;5.994;2023-03-14T09:08:26;9.20;99.90
49224;DHT22;35050;51.316;5.994;2023-03-14T09:10:52;9.10;99.90
49224;DHT22;35050;51.316;5.994;2023-03-14T09:13:17;9.00;99.90
49224;DHT22;35050;51.316;5.994;2023-03-14T09:15:43;8.90;99.90
49224;DHT22;35050;51.316;5.994;2023-03-14T09:18:08;8.80;99.90
49224;DHT22;35050;51.316;5.994;2023-03-14T09:20:34;8.80;99.90
49224;DHT22;35050;51.316;5.994;2023-03-14T09:23:00;8.90;99.90
49224;DHT22;35050;51.316;5.994;2023-03-14T09:25:25;9.00;99.90
49224;DHT22;35050;51.316;5.994;2023-03-14T09:27:51;9.20;99.90
49224;DHT22;35050;51.316;5.994;2023-03-14T09:30:17;9.20;99.90
49224;DHT22;35050;51.316;5.994;2023-03-14T09:32:42;9.10;99.90
49224;DHT22;35050;51.316;5.994;2023-03-14T09:35:08;9.10;99.90
49224;DHT22;35050;51.316;5.994;2023-03-14T09:37:35;9.10;99.90
49224;DHT22;35050;51.316;5.994;2023-03-14T09:40:00;9.00;99.90
49224;DHT22;35050;51.316;5.994;2023-03-14T09:42:31;9.00;99.90
49224;DHT22;35050;51.316;5.994;2023-03-14T09:45:00;8.90;99.90
49224;DHT22;35050;51.316;5.994;2023-03-14T09:47:27;8.90;99.90
49224;DHT22;35050;51.316;5.994;2023-03-14T09:49:53;9.00;99.90
49224;DHT22;35050;51.316;5.994;2023-03-14T09:52:32;9.00;99.90
49224;DHT22;35050;51.316;5.994;2023-03-14T09:55:24;9.20;99.90
49224;DHT22;35050;51.316;5.994;2023-03-14T09:57:56;9.20;99.90
49224;DHT22;35050;51.316;5.994;2023-03-14T10:00:26;9.30;99.90
49224;DHT22;35050;51.316;5.994;2023-03-14T10:02:55;9.20;99.90
49224;DHT22;35050;51.316;5.994;2023-03-14T10:05:23;9.20;99.90
49224;DHT22;35050;51.316;5.994;2023-03-14T10:07:49;9.40;99.90
49224;DHT22;35050;51.316;5.994;2023-03-14T10:10:20;9.40;99.90
49224;DHT22;35050;51.316;5.994;2023-03-14T10:12:54;9.50;99.90
49224;DHT22;35050;51.316;5.994;2023-03-14T10:15:30;9.50;99.90
49224;DHT22;35050;51.316;5.994;2023-03-14T10:17:59;9.40;99.90
49224;DHT22;35050;51.316;5.994;2023-03-14T10:20:38;9.40;99.90
49224;DHT22;35050;51.316;5.994;2023-03-14T10:23:16;9.30;99.90
49224;DHT22;35050;51.316;5.994;2023-03-14T10:28:34;8.70;99.90
49224;DHT22;35050;51.316;5.994;2023-03-14T10:31:00;8.20;99.90
49224;DHT22;35050;51.316;5.994;2023-03-14T10:33:34;8.40;99.90
49224;DHT22;35050;51.316;5.994;2023-03-14T10:36:22;8.40;99.90
49224;DHT22;35050;51.316;5.994;2023-03-14T10:38:49;8.20;99.90
49224;DHT22;35050;51.316;5.994;2023-03-14T10:41:25;8.50;99.90
49224;DHT22;35050;51.316;5.994;2023-03-14T10:43:54;8.50;99.90
49224;DHT22;35050;51.316;5.994;2023-03-14T10:46:24;8.50;99.90
49224;DHT22;35050;51.316;5.994;2023-03-14T10:48:52;8.70;99.90
49224;DHT22;35050;51.316;5.994;2023-03-14T10:51:29;8.90;99.90
49224;DHT22;35050;51.316;5.994;2023-03-14T10:54:15;8.80;99.90
49224;DHT22;35050;51.316;5.994;2023-03-14T10:56:44;8.60;99.90
49224;DHT22;35050;51.316;5.994;2023-03-14T10:59:14;8.60;99.90
49224;DHT22;35050;51.316;5.994;2023-03-14T11:04:21;8.50;99.90
49224;DHT22;35050;51.316;5.994;2023-03-14T11:14:56;8.60;99.90
49224;DHT22;35050;51.316;5.994;2023-03-14T11:17:46;8.60;99.90
49224;DHT22;35050;51.316;5.994;2023-03-14T11:20:45;9.60;99.90
49224;DHT22;35050;51.316;5.994;2023-03-14T11:23:20;9.00;99.90
49224;DHT22;35050;51.316;5.994;2023-03-14T11:26:06;8.90;99.90
49224;DHT22;35050;51.316;5.994;2023-03-14T11:28:41;8.80;99.90
49224;DHT22;35050;51.316;5.994;2023-03-14T11:31:23;9.70;99.90
49224;DHT22;35050;51.316;5.994;2023-03-14T11:36:41;10.30;99.90
49224;DHT22;35050;51.316;5.994;2023-03-14T11:39:15;10.20;99.90
49224;DHT22;35050;51.316;5.994;2023-03-14T11:41:44;10.20;99.90
49224;DHT22;35050;51.316;5.994;2023-03-14T11:44:20;10.10;99.90
49224;DHT22;35050;51.316;5.994;2023-03-14T11:47:02;10.10;99.90
49224;DHT22;35050;51.316;5.994;2023-03-14T11:49:48;9.90;99.90
49224;DHT22;35050;51.316;5.994;2023-03-14T11:54:57;9.50;99.90
49224;DHT22;35050;51.316;5.994;2023-03-14T11:57:24;9.60;99.90
49224;DHT22;35050;51.316;5.994;2023-03-14T12:10:08;9.80;99.90
49224;DHT22;35050;51.316;5.994;2023-03-14T12:12:34;9.80;99.90
49224;DHT22;35050;51.316;5.994;2023-03-14T12:15:02;9.80;99.90
49224;DHT22;35050;51.316;5.994;2023-03-14T12:17:41;9.70;99.90
49224;DHT22;35050;51.316;5.994;2023-03-14T12:22:45;8.60;99.90
49224;DHT22;35050;51.316;5.994;2023-03-14T12:27:49;8.30;99.90
49224;DHT22;35050;51.316;5.994;2023-03-14T12:30:38;8.60;99.90
49224;DHT22;35050;51.316;5.994;2023-03-14T12:35:57;8.60;99.90
49224;DHT22;35050;51.316;5.994;2023-03-14T12:38:45;8.70;99.90
49224;DHT22;35050;51.316;5.994;2023-03-14T12:41:35;8.50;99.90
49224;DHT22;35050;51.316;5.994;2023-03-14T12:49:43;8.80;99.90
49224;DHT22;35050;51.316;5.994;2023-03-14T12:52:16;9.10;99.90
49224;DHT22;35050;51.316;5.994;2023-03-14T12:55:03;9.00;99.90
49224;DHT22;35050;51.316;5.994;2023-03-14T12:57:45;8.80;99.90
49224;DHT22;35050;51.316;5.994;2023-03-14T13:00:23;8.50;99.90
49224;DHT22;35050;51.316;5.994;2023-03-14T13:03:19;8.50;99.90
49224;DHT22;35050;51.316;5.994;2023-03-14T13:05:58;8.20;99.90
49224;DHT22;35050;51.316;5.994;2023-03-14T13:11:16;8.30;99.90
49224;DHT22;35050;51.316;5.994;2023-03-14T13:13:49;8.70;99.90
49224;DHT22;35050;51.316;5.994;2023-03-14T13:16:20;9.10;99.90
49224;DHT22;35050;51.316;5.994;2023-03-14T13:18:48;9.30;99.90
49224;DHT22;35050;51.316;5.994;2023-03-14T13:21:24;10.20;99.90
49224;DHT22;35050;51.316;5.994;2023-03-14T13:24:17;11.10;99.90
49224;DHT22;35050;51.316;5.994;2023-03-14T13:26:45;10.40;99.90
49224;DHT22;35050;51.316;5.994;2023-03-14T13:31:53;11.30;99.90
49224;DHT22;35050;51.316;5.994;2023-03-14T13:34:19;11.70;99.90
49224;DHT22;35050;51.316;5.994;2023-03-14T13:36:46;11.80;99.90
49224;DHT22;35050;51.316;5.994;2023-03-14T13:39:26;12.40;99.90
49224;DHT22;35050;51.316;5.994;2023-03-14T13:41:55;12.20;99.90
49224;DHT22;35050;51.316;5.994;2023-03-14T13:44:24;12.20;99.90
49224;DHT22;35050;51.316;5.994;2023-03-14T13:46:51;12.70;99.90
49224;DHT22;35050;51.316;5.994;2023-03-14T13:49:22;12.80;99.90
49224;DHT22;35050;51.316;5.994;2023-03-14T13:51:49;12.00;99.90
49224;DHT22;35050;51.316;5.994;2023-03-14T13:54:19;11.60;99.90
49224;DHT22;35050;51.316;5.994;2023-03-14T13:56:46;11.40;99.90
49224;DHT22;35050;51.316;5.994;2023-03-14T13:59:27;11.20;99.90
49224;DHT22;35050;51.316;5.994;2023-03-14T14:01:53;11.40;99.90
49224;DHT22;35050;51.316;5.994;2023-03-14T14:04:22;10.90;99.90
49224;DHT22;35050;51.316;5.994;2023-03-14T14:09:20;11.20;99.90
49224;DHT22;35050;51.316;5.994;2023-03-14T14:12:00;10.90;99.90
49224;DHT22;35050;51.316;5.994;2023-03-14T14:16:56;10.90;99.90
49224;DHT22;35050;51.316;5.994;2023-03-14T14:19:25;10.80;99.90
49224;DHT22;35050;51.316;5.994;2023-03-14T14:21:53;10.90;99.90
49224;DHT22;35050;51.316;5.994;2023-03-14T14:24:22;10.80;99.90
49224;DHT22;35050;51.316;5.994;2023-03-14T14:26:54;10.70;99.90
49224;DHT22;35050;51.316;5.994;2023-03-14T14:29:28;10.80;99.90
49224;DHT22;35050;51.316;5.994;2023-03-14T14:32:11;11.00;99.90
49224;DHT22;35050;51.316;5.994;2023-03-14T14:34:46;11.30;99.90
49224;DHT22;35050;51.316;5.994;2023-03-14T14:37:28;11.60;99.90
49224;DHT22;35050;51.316;5.994;2023-03-14T14:40:43;11.70;99.90
49224;DHT22;35050;51.316;5.994;2023-03-14T14:42:45;11.80;99.90
49224;DHT22;35050;51.316;5.994;2023-03-14T14:45:17;11.40;99.60
49224;DHT22;35050;51.316;5.994;2023-03-14T14:47:55;11.40;99.80
49224;DHT22;35050;51.316;5.994;2023-03-14T14:53:01;11.50;98.90
49224;DHT22;35050;51.316;5.994;2023-03-14T14:55:40;11.30;98.90
49224;DHT22;35050;51.316;5.994;2023-03-14T14:58:34;11.20;97.10
49224;DHT22;35050;51.316;5.994;2023-03-14T15:01:07;11.20;98.60
49224;DHT22;35050;51.316;5.994;2023-03-14T15:03:35;11.20;96.90
49224;DHT22;35050;51.316;5.994;2023-03-14T15:06:02;10.80;95.90
49224;DHT22;35050;51.316;5.994;2023-03-14T15:08:28;10.70;96.90
49224;DHT22;35050;51.316;5.994;2023-03-14T15:10:55;11.00;99.90
49224;DHT22;35050;51.316;5.994;2023-03-14T15:13:20;10.60;98.10
49224;DHT22;35050;51.316;5.994;2023-03-14T15:15:46;10.20;97.20
49224;DHT22;35050;51.316;5.994;2023-03-14T15:18:17;10.30;97.00
49224;DHT22;35050;51.316;5.994;2023-03-14T15:20:44;10.30;97.70
49224;DHT22;35050;51.316;5.994;2023-03-14T15:23:11;10.10;96.30
49224;DHT22;35050;51.316;5.994;2023-03-14T15:25:37;10.00;96.60
49224;DHT22;35050;51.316;5.994;2023-03-14T15:28:15;9.90;96.30
49224;DHT22;35050;51.316;5.994;2023-03-14T15:30:41;9.80;95.90
49224;DHT22;35050;51.316;5.994;2023-03-14T15:33:07;9.90;97.10
49224;DHT22;35050;51.316;5.994;2023-03-14T15:35:38;9.70;96.30
49224;DHT22;35050;51.316;5.994;2023-03-14T15:38:04;9.80;96.80
49224;DHT22;35050;51.316;5.994;2023-03-14T15:40:30;9.80;96.70
49224;DHT22;35050;51.316;5.994;2023-03-14T15:42:56;9.70;95.60
49224;DHT22;35050;51.316;5.994;2023-03-14T15:45:21;9.70;95.60
49224;DHT22;35050;51.316;5.994;2023-03-14T15:47:47;9.50;95.70
49224;DHT22;35050;51.316;5.994;2023-03-14T15:50:13;9.40;96.60
49224;DHT22;35050;51.316;5.994;2023-03-14T15:52:38;9.40;96.20
49224;DHT22;35050;51.316;5.994;2023-03-14T15:55:04;9.30;96.40
49224;DHT22;35050;51.316;5.994;2023-03-14T15:57:30;9.20;96.60
49224;DHT22;35050;51.316;5.994;2023-03-14T15:59:56;9.20;97.80
49224;DHT22;35050;51.316;5.994;2023-03-14T16:02:21;9.40;98.40
49224;DHT22;35050;51.316;5.994;2023-03-14T16:04:47;9.40;99.10
49224;DHT22;35050;51.316;5.994;2023-03-14T16:07:12;9.40;98.90
49224;DHT22;35050;51.316;5.994;2023-03-14T16:09:38;9.20;98.30
49224;DHT22;35050;51.316;5.994;2023-03-14T16:12:04;9.20;97.60
49224;DHT22;35050;51.316;5.994;2023-03-14T16:14:32;9.10;98.10
49224;DHT22;35050;51.316;5.994;2023-03-14T16:16:57;9.00;98.30
49224;DHT22;35050;51.316;5.994;2023-03-14T16:19:25;9.00;97.90
49224;DHT22;35050;51.316;5.994;2023-03-14T16:21:56;8.90;98.10
49224;DHT22;35050;51.316;5.994;2023-03-14T16:24:21;8.70;98.10
49224;DHT22;35050;51.316;5.994;2023-03-14T16:26:47;8.80;98.40
49224;DHT22;35050;51.316;5.994;2023-03-14T16:29:14;8.60;98.90
49224;DHT22;35050;51.316;5.994;2023-03-14T16:31:41;8.70;98.30
49224;DHT22;35050;51.316;5.994;2023-03-14T16:34:10;8.60;98.70
49224;DHT22;35050;51.316;5.994;2023-03-14T16:36:36;8.50;98.70
49224;DHT22;35050;51.316;5.994;2023-03-14T16:39:02;8.70;99.90
49224;DHT22;35050;51.316;5.994;2023-03-14T16:41:28;8.30;98.90
49224;DHT22;35050;51.316;5.994;2023-03-14T16:43:57;8.40;98.90
49224;DHT22;35050;51.316;5.994;2023-03-14T16:46:22;8.90;99.40
49224;DHT22;35050;51.316;5.994;2023-03-14T16:48:50;8.40;99.40
49224;DHT22;35050;51.316;5.994;2023-03-14T16:51:16;8.30;98.90